Time;durP1;ratioP1;P1;durP2;ratioP2;P2;SDS_P1;SDS_P2;PMS_P1;PMS_P2;Temp;Humidity;BMP_temperature;BMP_pressure;BME280_temperature;BME280_humidity;BME280_pressure;Samples;Min_cycle;Max_cycle;Signal;HPM_P1;HPM_P2
2021/05/18 00:01:27;;;;;;;1.67;0.50;;;;;;;7.36;84.11;96189.78;3544901;40;20846;-74
2021/05/18 00:03:57;;;;;;;1.60;0.70;;;;;;;7.36;84.89;96202.81;3534754;40;20692;-74
2021/05/18 00:06:25;;;;;;;0.80;0.60;;;;;;;7.37;85.20;96198.41;3546472;40;20840;-74
2021/05/18 00:11:46;;;;;;;3.43;0.67;;;;;;;7.30;85.26;96204.03;3549409;40;20464;-73
2021/05/18 00:14:16;;;;;;;1.33;0.60;;;;;;;7.31;85.49;96216.13;3551983;40;20485;-74
2021/05/18 00:16:44;;;;;;;0.80;0.50;;;;;;;7.33;85.71;96226.44;3551647;40;20468;-74
2021/05/18 00:19:12;;;;;;;1.10;0.90;;;;;;;7.31;86.07;96223.94;3547391;40;20848;-72
2021/05/18 00:21:40;;;;;;;0.93;0.60;;;;;;;7.27;85.69;96217.25;3548255;40;20471;-73
2021/05/18 00:24:09;;;;;;;3.53;0.60;;;;;;;7.28;85.74;96224.13;3544973;40;20538;-72
2021/05/18 00:26:36;;;;;;;1.57;0.53;;;;;;;7.25;86.07;96232.13;3536733;40;20570;-73
2021/05/18 00:29:05;;;;;;;2.10;0.70;;;;;;;7.28;85.63;96228.50;3545958;40;20571;-73
2021/05/18 00:31:32;;;;;;;1.37;0.60;;;;;;;7.26;85.43;96231.19;3541763;40;20492;-74
2021/05/18 00:34:00;;;;;;;0.70;0.60;;;;;;;7.22;85.94;96231.47;3550065;40;20515;-74
2021/05/18 00:36:27;;;;;;;2.10;0.50;;;;;;;7.24;85.45;96240.88;3546784;40;20859;-74
2021/05/18 00:38:55;;;;;;;0.70;0.50;;;;;;;7.26;85.73;96241.59;3543901;40;20430;-75
2021/05/18 00:41:23;;;;;;;1.17;0.60;;;;;;;7.23;86.65;96244.41;3540510;40;20461;-74
2021/05/18 00:43:51;;;;;;;0.90;0.60;;;;;;;7.23;86.58;96239.22;3546792;40;20694;-74
2021/05/18 00:46:20;;;;;;;1.23;0.70;;;;;;;7.24;86.61;96246.06;3548932;40;20507;-73
2021/05/18 00:48:56;;;;;;;3.17;0.60;;;;;;;7.21;86.50;96243.66;3543650;40;20472;-74
2021/05/18 00:51:26;;;;;;;3.00;0.53;;;;;;;7.17;86.41;96243.94;3547988;40;20909;-74
2021/05/18 00:53:54;;;;;;;0.87;0.50;;;;;;;7.16;86.71;96237.06;3549983;40;20447;-73
2021/05/18 00:56:33;;;;;;;2.10;0.70;;;;;;;7.17;86.59;96233.50;3546576;40;20522;-74
2021/05/18 00:59:02;;;;;;;0.80;0.50;;;;;;;7.10;86.38;96230.47;3537702;40;20519;-74
2021/05/18 01:01:30;;;;;;;1.07;0.60;;;;;;;7.20;86.39;96236.78;3552161;40;20512;-73
2021/05/18 01:03:59;;;;;;;0.80;0.47;;;;;;;7.19;87.63;96242.91;3543273;40;20553;-73
2021/05/18 01:06:29;;;;;;;1.00;0.60;;;;;;;7.22;86.93;96244.50;3550111;40;20907;-73
2021/05/18 01:08:58;;;;;;;1.00;0.50;;;;;;;7.24;86.78;96245.25;3548339;40;20745;-74
2021/05/18 01:11:29;;;;;;;0.80;0.50;;;;;;;7.24;87.10;96251.28;3549036;40;20479;-73
2021/05/18 01:14:00;;;;;;;1.37;0.60;;;;;;;7.25;87.31;96257.31;3548900;40;20842;-74
2021/05/18 01:16:30;;;;;;;2.17;0.67;;;;;;;7.24;86.79;96263.47;3547211;40;20475;-74
2021/05/18 01:18:57;;;;;;;1.40;0.60;;;;;;;7.28;86.95;96246.72;3552252;40;20440;-72
2021/05/18 01:21:26;;;;;;;1.10;0.70;;;;;;;7.27;87.15;96251.13;3545993;40;20458;-74
2021/05/18 01:23:54;;;;;;;1.87;0.60;;;;;;;7.29;87.35;96249.25;3544790;40;20730;-73
2021/05/18 01:26:22;;;;;;;0.80;0.60;;;;;;;7.30;87.20;96243.09;3550253;40;20504;-73
2021/05/18 01:28:50;;;;;;;3.17;0.90;;;;;;;7.32;87.16;96230.81;3534458;40;21140;-75
2021/05/18 01:31:21;;;;;;;0.97;0.60;;;;;;;7.33;86.86;96235.09;3546073;40;21171;-73
2021/05/18 01:33:49;;;;;;;3.00;0.80;;;;;;;7.38;87.20;96244.41;3549412;40;20824;-73
2021/05/18 01:36:19;;;;;;;1.03;0.60;;;;;;;7.36;86.91;96228.03;3547443;40;20840;-73
2021/05/18 01:38:55;;;;;;;0.80;0.50;;;;;;;7.33;86.66;96227.28;3548812;40;20504;-74
2021/05/18 01:44:11;;;;;;;0.80;0.70;;;;;;;7.33;86.82;96218.63;3546880;40;20464;-73
2021/05/18 01:46:39;;;;;;;0.80;0.60;;;;;;;7.32;87.28;96223.00;3549177;40;20904;-73
2021/05/18 01:49:08;;;;;;;1.20;0.70;;;;;;;7.31;86.99;96234.34;3548170;40;20456;-74
2021/05/18 01:51:39;;;;;;;1.13;0.70;;;;;;;7.30;87.01;96235.28;3550482;40;20498;-74
2021/05/18 01:54:10;;;;;;;1.93;0.70;;;;;;;7.29;87.52;96238.84;3545576;40;20876;-74
2021/05/18 01:56:48;;;;;;;1.77;0.70;;;;;;;7.30;87.59;96240.50;3547812;40;20538;-74
2021/05/18 01:59:20;;;;;;;1.00;0.60;;;;;;;7.24;87.51;96245.25;3545025;40;20785;-73
2021/05/18 02:01:50;;;;;;;3.47;0.60;;;;;;;7.22;87.50;96252.31;3549299;40;20474;-74
2021/05/18 02:04:22;;;;;;;0.87;0.60;;;;;;;7.15;87.79;96259.66;3548328;40;20464;-73
2021/05/18 02:06:51;;;;;;;2.40;0.60;;;;;;;7.12;87.75;96257.25;3549114;40;20702;-74
2021/05/18 02:09:20;;;;;;;0.83;0.53;;;;;;;7.09;87.68;96268.66;3542890;40;20921;-74
2021/05/18 02:11:50;;;;;;;0.70;0.50;;;;;;;7.09;87.31;96267.84;3544124;40;21193;-74
2021/05/18 02:14:23;;;;;;;1.00;0.63;;;;;;;7.10;87.48;96277.34;3546374;40;20771;-74
2021/05/18 02:16:54;;;;;;;1.63;1.13;;;;;;;7.14;86.34;96281.44;3547857;40;20807;-75
2021/05/18 02:19:33;;;;;;;0.80;0.60;;;;;;;7.16;86.17;96282.16;3538401;40;20715;-74
2021/05/18 02:22:14;;;;;;;0.70;0.50;;;;;;;7.18;85.77;96271.66;3548127;40;20565;-76
2021/05/18 02:24:47;;;;;;;1.83;0.80;;;;;;;7.16;85.74;96278.75;3548389;40;20792;-73
2021/05/18 02:27:16;;;;;;;2.33;0.50;;;;;;;7.16;86.15;96284.78;3545801;40;20506;-73
2021/05/18 02:29:44;;;;;;;0.90;0.50;;;;;;;7.01;85.75;96265.69;3550968;40;20535;-73
2021/05/18 02:32:12;;;;;;;0.80;0.50;;;;;;;7.06;85.59;96268.88;3552365;40;20477;-73
2021/05/18 02:34:39;;;;;;;2.57;0.70;;;;;;;6.96;85.29;96256.47;3548217;40;20697;-74
2021/05/18 02:37:07;;;;;;;1.00;0.60;;;;;;;7.13;84.75;96284.94;3549993;40;20776;-73
2021/05/18 02:39:35;;;;;;;0.80;0.60;;;;;;;7.10;85.07;96282.53;3553092;40;20451;-73
2021/05/18 02:42:04;;;;;;;1.30;0.73;;;;;;;7.06;85.29;96292.31;3549883;40;20490;-74
2021/05/18 02:44:37;;;;;;;0.80;0.57;;;;;;;7.02;85.54;96288.22;3548564;40;20470;-74
2021/05/18 02:49:51;;;;;;;0.80;0.60;;;;;;;6.97;85.87;96292.00;3548286;40;20464;-74
2021/05/18 02:52:19;;;;;;;0.80;0.60;;;;;;;6.85;85.90;96276.19;3547840;40;20476;-73
2021/05/18 02:54:49;;;;;;;3.13;0.60;;;;;;;7.00;85.33;96287.47;3548947;40;20449;-74
2021/05/18 02:57:30;;;;;;;1.20;0.50;;;;;;;6.81;85.22;96279.88;3539562;40;20854;-73
2021/05/18 03:00:00;;;;;;;0.90;0.53;;;;;;;6.90;86.06;96289.78;3546566;40;20437;-73
2021/05/18 03:02:28;;;;;;;2.27;0.57;;;;;;;6.86;85.50;96290.88;3547589;40;20938;-72
2021/05/18 03:04:56;;;;;;;3.37;0.70;;;;;;;6.75;85.95;96282.84;3547160;40;20704;-73
2021/05/18 03:07:23;;;;;;;2.13;0.57;;;;;;;6.76;86.06;96297.53;3544075;40;20836;-74
2021/05/18 03:09:50;;;;;;;0.70;0.50;;;;;;;6.72;85.92;96296.03;3537021;40;20928;-73
2021/05/18 03:12:19;;;;;;;12.50;1.20;;;;;;;6.72;86.01;96291.69;3544842;40;21139;-74
2021/05/18 03:14:46;;;;;;;0.80;0.60;;;;;;;6.71;85.87;96289.16;3547486;40;20825;-73
2021/05/18 03:17:18;;;;;;;1.27;0.50;;;;;;;6.70;85.84;96292.69;3548611;40;20467;-73
2021/05/18 03:19:46;;;;;;;0.90;0.60;;;;;;;6.64;86.35;96300.84;3546487;40;20462;-73
2021/05/18 03:22:16;;;;;;;2.60;0.60;;;;;;;6.63;86.32;96294.00;3546517;40;20464;-73
2021/05/18 03:24:44;;;;;;;5.90;0.60;;;;;;;6.59;86.30;96295.09;3541757;40;20541;-72
2021/05/18 03:27:13;;;;;;;2.30;0.53;;;;;;;6.59;86.10;96300.28;3546890;40;20484;-74
2021/05/18 03:29:43;;;;;;;0.77;0.53;;;;;;;6.62;86.32;96298.34;3543435;40;20800;-73
2021/05/18 03:34:56;;;;;;;1.00;0.70;;;;;;;6.58;86.75;96293.41;3545316;40;20945;-73
2021/05/18 03:37:26;;;;;;;1.50;0.80;;;;;;;6.59;86.98;96289.88;3547383;40;20547;-73
2021/05/18 03:39:58;;;;;;;2.53;0.73;;;;;;;6.61;86.98;96288.88;3547029;40;20747;-72
2021/05/18 03:42:29;;;;;;;0.90;0.70;;;;;;;6.65;86.70;96294.75;3541113;40;20463;-74
2021/05/18 03:45:10;;;;;;;0.80;0.60;;;;;;;6.60;86.89;96294.16;3546685;40;20890;-73
2021/05/18 03:53:31;;;;;;;1.50;0.80;;;;;;;6.64;86.87;96316.47;3547372;40;21243;-73
2021/05/18 04:04:23;;;;;;;3.67;0.60;;;;;;;6.66;86.10;96301.59;3551047;40;20781;-73
2021/05/18 04:12:41;;;;;;;0.80;0.60;;;;;;;6.53;87.29;96309.28;3544665;40;20460;-74
2021/05/18 04:18:02;;;;;;;1.00;0.70;;;;;;;6.84;85.30;96320.50;3539009;40;20568;-74
2021/05/18 04:20:39;;;;;;;1.30;0.50;;;;;;;6.93;85.21;96318.22;3551076;40;20795;-74
2021/05/18 04:23:22;;;;;;;0.90;0.57;;;;;;;6.98;84.76;96322.31;3548108;40;20443;-74
2021/05/18 04:48:33;;;;;;;0.80;0.60;;;;;;;7.09;85.44;96358.97;3532101;40;20621;-76
2021/05/18 04:51:15;;;;;;;0.93;0.60;;;;;;;7.15;85.10;96356.00;3532318;40;20587;-74
2021/05/18 04:54:05;;;;;;;1.63;0.90;;;;;;;7.22;85.38;96362.53;3540985;40;20444;-75
2021/05/18 04:59:21;;;;;;;1.73;0.70;;;;;;;7.18;85.30;96368.88;3549536;40;20469;-74
2021/05/18 05:01:56;;;;;;;7.03;0.83;;;;;;;7.12;85.78;96366.63;3548381;40;20536;-74
2021/05/18 05:07:10;;;;;;;1.93;0.70;;;;;;;7.00;86.37;96373.38;3535200;40;20576;-74
2021/05/18 05:09:41;;;;;;;1.83;0.70;;;;;;;6.95;86.50;96362.38;3550653;40;20527;-74
2021/05/18 05:14:59;;;;;;;0.97;0.73;;;;;;;7.10;85.60;96384.94;3539448;40;20857;-74
2021/05/18 05:17:27;;;;;;;4.80;0.70;;;;;;;7.22;85.95;96390.38;3550916;40;20458;-74
2021/05/18 05:19:55;;;;;;;0.80;0.60;;;;;;;7.43;85.92;96377.81;3546527;40;20688;-74
2021/05/18 05:22:23;;;;;;;0.93;0.70;;;;;;;7.45;85.62;96384.63;3543472;40;20580;-74
2021/05/18 05:24:51;;;;;;;5.70;1.00;;;;;;;7.48;85.09;96394.03;3546323;40;20840;-74
2021/05/18 05:27:18;;;;;;;1.27;0.70;;;;;;;7.44;84.55;96397.75;3547587;40;20508;-75
2021/05/18 05:30:00;;;;;;;1.53;0.70;;;;;;;7.41;85.36;96397.91;3549451;40;20803;-73
2021/05/18 05:32:28;;;;;;;0.90;0.60;;;;;;;7.32;85.99;96405.34;3537021;40;20480;-75
2021/05/18 05:34:55;;;;;;;1.00;0.73;;;;;;;7.29;86.84;96412.50;3544958;40;20456;-77
2021/05/18 05:37:23;;;;;;;1.47;0.97;;;;;;;7.19;86.97;96413.97;3545686;40;20473;-74
2021/05/18 05:39:52;;;;;;;3.33;1.00;;;;;;;7.16;88.25;96407.19;3546741;40;20864;-74
2021/05/18 05:42:20;;;;;;;1.47;0.90;;;;;;;7.08;88.37;96406.78;3542118;40;20475;-74
2021/05/18 05:44:48;;;;;;;2.13;0.90;;;;;;;7.06;88.00;96403.44;3546040;40;20476;-74
2021/05/18 05:47:16;;;;;;;1.57;0.90;;;;;;;7.08;87.93;96397.22;3544778;40;20445;-74
2021/05/18 05:49:43;;;;;;;4.93;1.20;;;;;;;7.15;88.35;96402.06;3550910;40;20466;-73
2021/05/18 05:52:17;;;;;;;4.37;1.43;;;;;;;7.17;88.11;96406.25;3548369;40;20468;-74
2021/05/18 05:54:47;;;;;;;2.23;0.70;;;;;;;7.12;88.26;96410.91;3547250;40;20455;-74
2021/05/18 05:57:17;;;;;;;0.97;0.70;;;;;;;7.12;88.52;96408.28;3550765;40;20854;-74
2021/05/18 05:59:45;;;;;;;1.10;0.70;;;;;;;7.18;88.58;96407.09;3547457;40;20865;-75
2021/05/18 06:02:13;;;;;;;2.90;1.07;;;;;;;7.24;89.02;96411.94;3544965;40;20455;-73
2021/05/18 06:04:41;;;;;;;1.87;0.70;;;;;;;7.28;88.24;96403.84;3544079;40;20910;-74
2021/05/18 06:07:08;;;;;;;1.80;1.27;;;;;;;7.45;87.79;96409.84;3545409;40;20956;-73
2021/05/18 06:09:37;;;;;;;2.00;1.10;;;;;;;7.53;88.89;96410.22;3549171;40;20468;-74
2021/05/18 06:12:18;;;;;;;4.93;1.00;;;;;;;7.86;86.40;96409.09;3547562;40;20557;-74
2021/05/18 06:14:51;;;;;;;1.43;0.70;;;;;;;7.75;85.55;96416.75;3548891;40;20930;-73
2021/05/18 06:34:15;;;;;;;4.73;0.97;;;;;;;9.49;78.62;96401.34;3537165;40;20752;-74
2021/05/18 06:42:58;;;;;;;0.80;0.60;;;;;;;8.82;80.64;96411.84;3537241;40;20474;-74
2021/05/18 06:48:24;;;;;;;16.03;8.50;;;;;;;9.18;79.02;96411.22;3519034;40;20581;-73
2021/05/18 06:50:53;;;;;;;26.53;13.00;;;;;;;9.29;78.84;96415.72;3542170;40;20472;-74
2021/05/18 06:53:22;;;;;;;4.00;2.10;;;;;;;9.79;77.73;96426.34;3547777;40;20451;-74
2021/05/18 06:55:52;;;;;;;1.30;0.70;;;;;;;9.59;78.22;96415.47;3535865;40;20495;-76
2021/05/18 06:58:48;;;;;;;0.80;0.63;;;;;;;9.66;78.13;96421.09;3543346;40;20482;-74
2021/05/18 07:01:19;;;;;;;6.47;0.87;;;;;;;9.63;76.71;96424.78;3541867;40;20927;-74
2021/05/18 07:03:49;;;;;;;3.93;1.20;;;;;;;9.77;76.88;96431.69;3540521;40;20498;-74
2021/05/18 07:06:39;;;;;;;4.90;1.70;;;;;;;9.96;76.20;96410.34;3548988;40;20923;-75
2021/05/18 07:09:06;;;;;;;6.60;4.37;;;;;;;10.00;77.67;96431.91;3537845;40;20484;-73
2021/05/18 07:11:34;;;;;;;2.13;0.80;;;;;;;10.01;76.99;96426.53;3545711;40;20500;-74
2021/05/18 07:14:01;;;;;;;2.07;0.90;;;;;;;9.82;75.60;96429.59;3547100;40;20508;-73
2021/05/18 07:16:30;;;;;;;6.10;0.80;;;;;;;9.61;77.02;96428.44;3551640;40;20830;-74
2021/05/18 07:18:58;;;;;;;2.27;0.93;;;;;;;9.56;77.52;96436.56;3545977;40;20768;-74
2021/05/18 07:21:25;;;;;;;1.73;0.80;;;;;;;9.49;78.46;96435.34;3539271;40;20567;-73
2021/05/18 07:23:53;;;;;;;3.10;1.30;;;;;;;9.57;78.55;96438.25;3547453;40;20772;-75
2021/05/18 07:26:20;;;;;;;2.47;0.97;;;;;;;9.38;76.01;96445.66;3547695;40;20987;-73
2021/05/18 07:28:48;;;;;;;4.47;1.40;;;;;;;9.50;78.37;96442.22;3552255;40;20439;-75
2021/05/18 07:31:17;;;;;;;2.90;1.10;;;;;;;9.81;77.04;96440.16;3544732;40;20467;-74
2021/05/18 07:33:45;;;;;;;3.90;1.20;;;;;;;9.98;74.30;96434.59;3548976;40;20842;-76
2021/05/18 07:36:13;;;;;;;4.63;1.77;;;;;;;9.77;73.25;96412.53;3547689;40;20816;-74
2021/05/18 07:38:42;;;;;;;4.60;1.47;;;;;;;9.96;74.31;96412.94;3548342;40;20482;-73
2021/05/18 07:41:10;;;;;;;6.47;1.00;;;;;;;10.01;73.77;96436.16;3549662;40;20720;-74
2021/05/18 07:43:38;;;;;;;12.13;1.30;;;;;;;10.19;73.21;96434.91;3543580;40;20783;-74
2021/05/18 07:46:12;;;;;;;2.80;0.80;;;;;;;10.09;73.48;96415.53;3548693;40;20485;-75
2021/05/18 07:48:42;;;;;;;2.90;1.33;;;;;;;10.17;74.43;96441.16;3547054;40;20888;-74
2021/05/18 07:51:18;;;;;;;5.30;1.40;;;;;;;9.75;73.81;96445.81;3550860;40;20484;-72
2021/05/18 07:59:22;;;;;;;3.03;1.57;;;;;;;9.74;73.58;96452.81;3547262;40;20536;-75
2021/05/18 08:07:22;;;;;;;5.80;0.90;;;;;;;9.49;73.90;96441.38;3545880;40;20828;-74
2021/05/18 08:09:52;;;;;;;2.30;0.90;;;;;;;9.35;75.12;96393.56;3548249;40;21129;-75
2021/05/18 08:12:19;;;;;;;4.73;1.10;;;;;;;9.48;72.92;96444.09;3545626;40;21252;-73
2021/05/18 08:14:50;;;;;;;8.30;0.87;;;;;;;9.49;71.84;96435.34;3548022;40;20730;-73
2021/05/18 08:17:21;;;;;;;2.03;0.87;;;;;;;9.83;69.97;96433.03;3541826;40;20845;-74
2021/05/18 08:20:18;;;;;;;5.97;1.00;;;;;;;10.25;69.96;96437.09;3546870;40;20990;-74
2021/05/18 09:01:48;;;;;;;3.97;1.10;;;;;;;10.81;65.72;96441.88;3544790;40;20471;-75
2021/05/18 09:48:33;;;;;;;3.63;0.73;;;;;;;12.05;67.56;96402.94;3539997;40;20549;-75
2021/05/18 10:22:21;;;;;;;3.13;0.70;;;;;;;13.64;56.97;96377.00;3536779;40;20463;-77
2021/05/18 10:35:47;;;;;;;4.30;0.70;;;;;;;13.40;55.85;96364.09;3549006;40;20754;-77
2021/05/18 10:38:23;;;;;;;3.40;0.80;;;;;;;13.17;55.50;96358.09;3543107;40;20487;-77
2021/05/18 10:40:54;;;;;;;3.73;0.70;;;;;;;13.01;55.08;96359.38;3543728;40;20852;-79
2021/05/18 10:43:28;;;;;;;2.03;0.80;;;;;;;12.90;54.03;96363.84;3532846;40;20715;-78
2021/05/18 10:46:06;;;;;;;2.67;0.80;;;;;;;13.43;53.01;96358.59;3544642;40;20714;-78
2021/05/18 10:48:59;;;;;;;1.20;0.70;;;;;;;13.81;53.29;96362.41;3546513;40;20448;-78
2021/05/18 10:51:36;;;;;;;7.20;1.10;;;;;;;14.50;51.81;96364.31;3545801;40;20852;-79
2021/05/18 10:54:18;;;;;;;1.50;0.70;;;;;;;14.27;50.72;96360.22;3550109;40;20445;-79
2021/05/18 10:57:15;;;;;;;1.00;0.70;;;;;;;14.08;50.48;96366.28;3550590;40;20516;-77
2021/05/18 10:59:46;;;;;;;1.63;0.80;;;;;;;13.18;51.59;96357.97;3541724;40;20708;-79
2021/05/18 11:02:16;;;;;;;3.63;0.90;;;;;;;12.83;52.77;96359.09;3548535;40;20558;-77
2021/05/18 11:04:46;;;;;;;4.03;0.67;;;;;;;14.43;48.97;96357.94;3545116;40;20430;-77
2021/05/18 11:07:19;;;;;;;4.87;1.00;;;;;;;15.16;48.11;96355.78;3543880;40;20927;-77
2021/05/18 11:09:48;;;;;;;3.70;0.90;;;;;;;14.78;46.82;96360.09;3544836;40;21028;-76
2021/05/18 11:12:20;;;;;;;0.90;0.60;;;;;;;13.59;49.45;96361.59;3538555;40;20448;-76
2021/05/18 11:15:04;;;;;;;2.97;0.80;;;;;;;13.17;52.29;96352.84;3548330;40;20471;-77
2021/05/18 11:17:33;;;;;;;2.50;0.80;;;;;;;12.70;54.72;96368.94;3545833;40;20563;-76
2021/05/18 11:20:13;;;;;;;3.13;0.83;;;;;;;12.16;54.56;96378.47;3544658;40;20479;-77
2021/05/18 11:25:33;;;;;;;3.70;0.73;;;;;;;11.93;53.22;96369.75;3549529;40;20861;-75
2021/05/18 11:28:13;;;;;;;2.77;0.60;;;;;;;11.98;51.47;96367.63;3545113;40;20483;-76
2021/05/18 11:30:43;;;;;;;1.10;0.53;;;;;;;12.86;49.64;96353.59;3541079;40;20557;-75
2021/05/18 11:33:11;;;;;;;5.90;0.60;;;;;;;13.81;47.62;96359.78;3550584;40;20463;-79
2021/05/18 11:35:38;;;;;;;3.33;0.70;;;;;;;13.88;47.34;96344.28;3537443;40;20475;-77
2021/05/18 11:38:14;;;;;;;2.30;0.70;;;;;;;13.52;49.09;96341.19;3547707;40;20452;-77
2021/05/18 11:40:47;;;;;;;2.50;0.80;;;;;;;13.69;49.65;96343.22;3537485;40;20448;-75
2021/05/18 11:43:18;;;;;;;4.90;0.90;;;;;;;13.57;49.10;96347.75;3546822;40;21138;-76
2021/05/18 11:45:47;;;;;;;1.20;0.70;;;;;;;13.70;50.57;96346.69;3552532;40;20455;-75
2021/05/18 11:48:18;;;;;;;2.63;0.80;;;;;;;13.33;50.12;96347.16;3550563;40;20445;-75
2021/05/18 11:50:47;;;;;;;2.80;0.70;;;;;;;14.78;48.80;96335.53;3551763;40;20513;-75
2021/05/18 11:53:30;;;;;;;2.53;0.80;;;;;;;15.44;46.08;96332.16;3538369;40;20491;-75
2021/05/18 11:55:59;;;;;;;1.33;0.60;;;;;;;15.07;47.51;96335.53;3547068;40;20703;-76
2021/05/18 11:58:27;;;;;;;7.33;0.67;;;;;;;14.87;47.28;96328.59;3549034;40;20447;-76
2021/05/18 12:01:05;;;;;;;4.93;1.70;;;;;;;15.53;47.83;96331.31;3550098;40;20852;-76
2021/05/18 12:03:34;;;;;;;1.57;0.77;;;;;;;16.70;43.87;96317.56;3538369;40;20516;-75
2021/05/18 12:06:04;;;;;;;3.43;0.70;;;;;;;15.45;45.83;96325.91;3545030;40;20506;-76
2021/05/18 12:08:33;;;;;;;1.80;0.80;;;;;;;14.97;47.88;96309.16;3549095;40;20614;-79
2021/05/18 12:11:18;;;;;;;3.20;0.77;;;;;;;13.65;52.17;96334.75;3551802;40;20455;-78
2021/05/18 12:13:47;;;;;;;4.50;0.83;;;;;;;12.53;54.95;96338.78;3551429;40;20487;-76
2021/05/18 12:16:17;;;;;;;3.83;0.87;;;;;;;12.44;53.79;96329.00;3548037;40;20790;-75
2021/05/18 12:18:50;;;;;;;2.30;0.50;;;;;;;14.10;51.87;96333.56;3550952;40;20734;-75
2021/05/18 12:21:19;;;;;;;8.63;1.10;;;;;;;14.90;47.61;96323.06;3545563;40;20473;-74
2021/05/18 12:24:04;;;;;;;2.33;0.70;;;;;;;16.17;46.91;96299.81;3547145;40;20954;-79
2021/05/18 12:26:33;;;;;;;1.87;0.70;;;;;;;16.28;44.58;96312.81;3549505;40;20509;-77
2021/05/18 12:29:04;;;;;;;2.80;1.00;;;;;;;15.49;45.64;96314.09;3550753;40;20780;-78
2021/05/18 12:31:34;;;;;;;3.57;0.80;;;;;;;15.41;47.22;96321.88;3546044;40;21186;-78
2021/05/18 12:34:02;;;;;;;6.50;0.80;;;;;;;15.28;48.24;96301.06;3552534;40;20762;-77
2021/05/18 12:36:31;;;;;;;1.67;0.60;;;;;;;16.27;46.29;96287.38;3544812;40;20444;-75
2021/05/18 12:39:20;;;;;;;2.30;0.60;;;;;;;15.61;43.11;96299.75;3549237;40;20784;-76
2021/05/18 12:41:54;;;;;;;2.03;0.93;;;;;;;16.61;44.84;96297.31;3545105;40;20521;-77
2021/05/18 12:44:24;;;;;;;1.07;0.60;;;;;;;16.64;43.38;96293.53;3547459;40;20475;-77
2021/05/18 12:46:58;;;;;;;2.40;0.70;;;;;;;15.81;41.80;96297.06;3551355;40;20985;-76
2021/05/18 12:49:28;;;;;;;1.30;0.67;;;;;;;15.14;41.96;96293.63;3549857;40;20844;-73
2021/05/18 12:52:00;;;;;;;0.80;0.50;;;;;;;15.01;42.01;96291.25;3541557;40;20471;-74
2021/05/18 12:54:40;;;;;;;2.43;0.53;;;;;;;14.63;43.30;96285.03;3543449;40;20736;-75
2021/05/18 12:57:10;;;;;;;2.87;1.37;;;;;;;14.50;43.19;96281.81;3545275;40;20471;-76
2021/05/18 12:59:56;;;;;;;3.23;1.57;;;;;;;15.07;42.72;96292.50;3544920;40;20722;-74
2021/05/18 13:02:31;;;;;;;1.87;0.70;;;;;;;15.42;41.71;96292.69;3545330;40;20491;-77
2021/05/18 13:05:07;;;;;;;2.37;0.73;;;;;;;15.73;41.27;96295.16;3545720;40;20510;-75
2021/05/18 13:07:35;;;;;;;3.57;0.80;;;;;;;15.37;42.15;96292.31;3540786;40;20540;-76
2021/05/18 13:10:08;;;;;;;4.40;0.90;;;;;;;16.48;42.10;96289.75;3548396;40;20454;-76
2021/05/18 13:12:36;;;;;;;4.73;0.73;;;;;;;16.48;40.33;96291.56;3547351;40;20843;-76
2021/05/18 13:15:08;;;;;;;8.70;0.60;;;;;;;15.22;42.61;96288.47;3548940;40;20525;-77
2021/05/18 13:17:36;;;;;;;1.30;0.60;;;;;;;14.32;45.49;96305.34;3547969;40;20820;-76
2021/05/18 13:20:08;;;;;;;1.53;0.70;;;;;;;13.87;46.56;96298.72;3551950;40;20482;-76
2021/05/18 13:22:37;;;;;;;3.00;0.90;;;;;;;13.89;47.57;96290.69;3546523;40;20693;-76
2021/05/18 13:28:02;;;;;;;0.80;0.60;;;;;;;12.91;55.81;96320.84;3527120;40;20482;-77
2021/05/18 13:30:32;;;;;;;3.83;0.80;;;;;;;12.22;59.42;96329.91;3536366;40;20541;-74
2021/05/18 13:33:00;;;;;;;1.67;0.60;;;;;;;11.08;62.25;96349.09;3548981;40;20970;-76
2021/05/18 13:35:30;;;;;;;1.67;0.53;;;;;;;10.97;64.05;96349.06;3539290;40;20457;-76
2021/05/18 13:38:00;;;;;;;3.17;0.70;;;;;;;10.71;66.36;96346.59;3545106;40;20458;-75
2021/05/18 13:40:28;;;;;;;1.57;0.67;;;;;;;10.44;70.67;96345.00;3547839;40;20703;-75
2021/05/18 13:42:56;;;;;;;7.07;2.50;;;;;;;10.13;75.97;96361.22;3544419;40;20835;-78
2021/05/18 13:45:26;;;;;;;1.67;0.53;;;;;;;10.36;74.33;96357.81;3544924;40;20534;-75
2021/05/18 13:47:55;;;;;;;0.80;0.50;;;;;;;10.83;72.63;96355.31;3546045;40;20489;-78
2021/05/18 13:50:23;;;;;;;2.37;0.70;;;;;;;12.17;70.70;96346.03;3545813;40;20454;-77
2021/05/18 13:52:51;;;;;;;1.10;0.63;;;;;;;13.19;65.89;96336.00;3545498;40;20428;-76
2021/05/18 13:55:19;;;;;;;2.33;0.80;;;;;;;13.75;60.10;96326.91;3542487;40;20444;-76
2021/05/18 13:57:46;;;;;;;7.80;4.73;;;;;;;13.73;59.44;96317.50;3544095;40;20824;-76
2021/05/18 14:00:20;;;;;;;2.10;0.70;;;;;;;13.37;58.53;96323.13;3547487;40;20459;-76
2021/05/18 14:02:51;;;;;;;1.40;0.70;;;;;;;13.53;57.27;96311.31;3549438;40;20482;-77
2021/05/18 14:05:21;;;;;;;2.60;1.10;;;;;;;13.08;58.60;96320.28;3546218;40;20547;-77
2021/05/18 14:10:46;;;;;;;0.90;0.60;;;;;;;11.27;62.01;96327.56;3549185;40;20451;-76
2021/05/18 14:13:13;;;;;;;1.00;0.60;;;;;;;11.03;62.28;96330.25;3542405;40;20440;-79
2021/05/18 14:15:44;;;;;;;0.80;0.50;;;;;;;11.20;63.36;96318.53;3547211;40;20828;-74
2021/05/18 14:18:13;;;;;;;1.00;0.77;;;;;;;12.14;59.14;96292.94;3548038;40;20455;-74
2021/05/18 14:20:42;;;;;;;0.83;0.60;;;;;;;12.50;59.21;96306.66;3547076;40;20823;-76
2021/05/18 14:23:11;;;;;;;0.80;0.50;;;;;;;12.43;58.04;96295.84;3544669;40;20488;-76
2021/05/18 14:25:39;;;;;;;0.90;0.50;;;;;;;13.10;56.68;96307.84;3546858;40;20447;-76
2021/05/18 14:28:27;;;;;;;2.63;0.70;;;;;;;13.19;55.50;96307.06;3544321;40;20765;-77
2021/05/18 14:30:55;;;;;;;0.80;0.60;;;;;;;12.89;55.24;96299.94;3539959;40;20459;-78
2021/05/18 14:33:23;;;;;;;1.20;0.60;;;;;;;12.48;56.94;96290.19;3547788;40;20459;-74
2021/05/18 14:35:52;;;;;;;1.60;0.67;;;;;;;12.91;56.34;96298.00;3536867;40;20550;-78
2021/05/18 14:38:21;;;;;;;2.20;0.60;;;;;;;12.89;57.52;96297.31;3547176;40;20448;-75
2021/05/18 14:46:52;;;;;;;1.73;0.60;;;;;;;15.75;51.25;96287.09;3528918;40;20491;-76
2021/05/18 14:54:55;;;;;;;0.90;0.60;;;;;;;16.92;48.79;96283.75;3544800;40;21167;-76
2021/05/18 14:57:22;;;;;;;0.80;0.60;;;;;;;16.62;46.18;96269.88;3548663;40;20469;-75
2021/05/18 14:59:51;;;;;;;1.20;0.70;;;;;;;16.70;48.23;96267.34;3537532;40;20716;-77
2021/05/18 15:02:18;;;;;;;1.50;0.70;;;;;;;17.02;47.06;96265.16;3545436;40;20860;-77
2021/05/18 15:04:47;;;;;;;2.97;0.60;;;;;;;16.17;47.49;96262.81;3542654;40;20436;-78
2021/05/18 15:07:17;;;;;;;2.63;0.70;;;;;;;15.18;50.52;96269.44;3545735;40;20475;-77
2021/05/18 15:09:50;;;;;;;7.73;3.63;;;;;;;15.62;48.72;96268.88;3544323;40;20436;-76
2021/05/18 15:12:18;;;;;;;8.13;0.80;;;;;;;14.99;49.03;96274.75;3541923;40;20942;-78
2021/05/18 15:14:45;;;;;;;1.20;0.60;;;;;;;14.31;51.11;96279.97;3547052;40;20792;-77
2021/05/18 15:17:14;;;;;;;3.90;0.73;;;;;;;13.99;51.58;96281.84;3544867;40;20541;-77
2021/05/18 15:19:42;;;;;;;2.40;0.70;;;;;;;15.09;48.89;96291.38;3546777;40;20460;-74
2021/05/18 15:22:11;;;;;;;1.97;0.80;;;;;;;16.37;46.69;96282.03;3550716;40;20899;-75
2021/05/18 15:24:39;;;;;;;3.10;0.73;;;;;;;16.10;46.53;96277.63;3537336;40;20468;-76
2021/05/18 15:27:08;;;;;;;4.17;0.87;;;;;;;15.03;51.06;96300.72;3544359;40;20492;-76
2021/05/18 15:29:36;;;;;;;1.47;0.70;;;;;;;13.78;56.43;96304.75;3545408;40;20756;-75
2021/05/18 15:32:06;;;;;;;4.33;0.90;;;;;;;13.01;59.05;96301.53;3541804;40;20464;-72
2021/05/18 15:34:35;;;;;;;1.27;0.60;;;;;;;12.35;61.13;96308.72;3544237;40;20447;-74
2021/05/18 15:37:03;;;;;;;1.00;0.60;;;;;;;11.88;61.16;96311.53;3546194;40;21067;-74
2021/05/18 15:39:31;;;;;;;1.00;0.50;;;;;;;12.30;58.92;96295.16;3547266;40;20858;-72
2021/05/18 15:41:59;;;;;;;0.80;0.50;;;;;;;12.24;57.11;96301.72;3543991;40;20904;-74
2021/05/18 15:44:27;;;;;;;2.30;0.60;;;;;;;12.12;56.57;96302.72;3553655;40;20446;-74
2021/05/18 15:46:54;;;;;;;1.37;0.60;;;;;;;12.28;57.35;96305.78;3547031;40;20853;-74
2021/05/18 15:49:24;;;;;;;5.17;0.70;;;;;;;12.45;57.66;96304.44;3547737;40;20528;-74
2021/05/18 15:51:52;;;;;;;0.90;0.50;;;;;;;12.44;58.54;96297.50;3542228;40;20478;-75
2021/05/18 15:54:19;;;;;;;5.37;1.80;;;;;;;12.38;59.32;96304.06;3549100;40;20859;-75
2021/05/18 15:56:50;;;;;;;4.23;1.47;;;;;;;12.54;59.51;96305.47;3550306;40;20472;-73
2021/05/18 15:59:18;;;;;;;6.93;1.73;;;;;;;12.33;60.70;96295.75;3545143;40;20812;-77
2021/05/18 16:01:45;;;;;;;1.97;0.90;;;;;;;11.91;61.09;96300.00;3553417;40;20872;-74